sensor_id;sensor_type;location;lat;lon;timestamp;P1;durP1;ratioP1;P2;durP2;ratioP2
26936;SDS011;14495;48.116;11.676;2022-12-07T00:00:47;14.65;;;7.40;;
26936;SDS011;14495;48.116;11.676;2022-12-07T00:03:13;15.98;;;8.90;;
26936;SDS011;14495;48.116;11.676;2022-12-07T00:05:38;19.40;;;8.05;;
26936;SDS011;14495;48.116;11.676;2022-12-07T00:08:03;19.15;;;9.15;;
26936;SDS011;14495;48.116;11.676;2022-12-07T00:10:29;14.63;;;8.10;;
26936;SDS011;14495;48.116;11.676;2022-12-07T00:12:54;15.57;;;8.52;;
26936;SDS011;14495;48.116;11.676;2022-12-07T00:15:19;16.08;;;8.57;;
26936;SDS011;14495;48.116;11.676;2022-12-07T00:17:45;18.35;;;8.93;;
26936;SDS011;14495;48.116;11.676;2022-12-07T00:20:10;18.33;;;8.18;;
26936;SDS011;14495;48.116;11.676;2022-12-07T00:22:35;16.55;;;8.30;;
26936;SDS011;14495;48.116;11.676;2022-12-07T00:25:00;18.55;;;8.52;;
26936;SDS011;14495;48.116;11.676;2022-12-07T00:27:26;17.60;;;8.68;;
26936;SDS011;14495;48.116;11.676;2022-12-07T00:29:52;12.70;;;7.32;;
26936;SDS011;14495;48.116;11.676;2022-12-07T00:32:17;15.98;;;8.48;;
26936;SDS011;14495;48.116;11.676;2022-12-07T00:34:42;13.35;;;7.90;;
26936;SDS011;14495;48.116;11.676;2022-12-07T00:37:08;12.88;;;7.25;;
26936;SDS011;14495;48.116;11.676;2022-12-07T00:39:33;17.33;;;8.02;;
26936;SDS011;14495;48.116;11.676;2022-12-07T00:41:58;13.68;;;7.47;;
26936;SDS011;14495;48.116;11.676;2022-12-07T00:44:23;12.82;;;7.45;;
26936;SDS011;14495;48.116;11.676;2022-12-07T00:46:49;13.68;;;7.10;;
26936;SDS011;14495;48.116;11.676;2022-12-07T00:49:14;12.60;;;7.20;;
26936;SDS011;14495;48.116;11.676;2022-12-07T00:51:39;11.57;;;6.68;;
26936;SDS011;14495;48.116;11.676;2022-12-07T00:54:05;13.45;;;6.72;;
26936;SDS011;14495;48.116;11.676;2022-12-07T00:56:30;13.73;;;8.18;;
26936;SDS011;14495;48.116;11.676;2022-12-07T00:58:59;13.70;;;7.45;;
26936;SDS011;14495;48.116;11.676;2022-12-07T01:01:26;11.18;;;7.00;;
26936;SDS011;14495;48.116;11.676;2022-12-07T01:03:53;10.60;;;5.70;;
26936;SDS011;14495;48.116;11.676;2022-12-07T01:06:20;13.43;;;6.90;;
26936;SDS011;14495;48.116;11.676;2022-12-07T01:08:46;11.38;;;6.35;;
26936;SDS011;14495;48.116;11.676;2022-12-07T01:11:16;12.10;;;6.85;;
26936;SDS011;14495;48.116;11.676;2022-12-07T01:16:10;14.50;;;7.10;;
26936;SDS011;14495;48.116;11.676;2022-12-07T01:18:37;10.45;;;6.28;;
26936;SDS011;14495;48.116;11.676;2022-12-07T01:23:39;10.50;;;5.82;;
26936;SDS011;14495;48.116;11.676;2022-12-07T01:26:06;13.30;;;6.45;;
26936;SDS011;14495;48.116;11.676;2022-12-07T01:28:33;11.23;;;6.25;;
26936;SDS011;14495;48.116;11.676;2022-12-07T01:31:02;10.27;;;6.05;;
26936;SDS011;14495;48.116;11.676;2022-12-07T01:33:33;12.70;;;6.00;;
26936;SDS011;14495;48.116;11.676;2022-12-07T01:36:04;11.82;;;5.85;;
26936;SDS011;14495;48.116;11.676;2022-12-07T01:38:40;14.98;;;6.70;;
26936;SDS011;14495;48.116;11.676;2022-12-07T01:41:06;9.88;;;6.00;;
26936;SDS011;14495;48.116;11.676;2022-12-07T01:43:32;13.60;;;6.93;;
26936;SDS011;14495;48.116;11.676;2022-12-07T01:45:58;11.75;;;6.38;;
26936;SDS011;14495;48.116;11.676;2022-12-07T01:48:28;18.23;;;7.85;;
26936;SDS011;14495;48.116;11.676;2022-12-07T01:51:00;10.32;;;6.22;;
26936;SDS011;14495;48.116;11.676;2022-12-07T01:53:29;12.38;;;7.47;;
26936;SDS011;14495;48.116;11.676;2022-12-07T01:55:57;11.27;;;6.63;;
26936;SDS011;14495;48.116;11.676;2022-12-07T01:58:23;12.45;;;6.40;;
26936;SDS011;14495;48.116;11.676;2022-12-07T02:00:49;12.35;;;6.50;;
26936;SDS011;14495;48.116;11.676;2022-12-07T02:03:30;10.30;;;6.18;;
26936;SDS011;14495;48.116;11.676;2022-12-07T02:06:01;12.85;;;6.50;;
26936;SDS011;14495;48.116;11.676;2022-12-07T02:08:26;11.75;;;6.68;;
26936;SDS011;14495;48.116;11.676;2022-12-07T02:10:52;12.25;;;6.15;;
26936;SDS011;14495;48.116;11.676;2022-12-07T02:13:19;12.38;;;6.47;;
26936;SDS011;14495;48.116;11.676;2022-12-07T02:21:34;11.52;;;5.95;;
26936;SDS011;14495;48.116;11.676;2022-12-07T02:30:03;14.55;;;7.40;;
26936;SDS011;14495;48.116;11.676;2022-12-07T02:38:16;11.93;;;6.90;;
26936;SDS011;14495;48.116;11.676;2022-12-07T02:40:57;13.20;;;6.78;;
26936;SDS011;14495;48.116;11.676;2022-12-07T02:43:38;13.63;;;6.78;;
26936;SDS011;14495;48.116;11.676;2022-12-07T02:46:11;13.32;;;7.10;;
26936;SDS011;14495;48.116;11.676;2022-12-07T02:48:41;12.10;;;6.93;;
26936;SDS011;14495;48.116;11.676;2022-12-07T02:51:08;10.10;;;6.47;;
26936;SDS011;14495;48.116;11.676;2022-12-07T02:53:41;13.85;;;7.45;;
26936;SDS011;14495;48.116;11.676;2022-12-07T02:56:11;12.25;;;7.10;;
26936;SDS011;14495;48.116;11.676;2022-12-07T02:58:50;9.68;;;6.38;;
26936;SDS011;14495;48.116;11.676;2022-12-07T03:01:50;11.90;;;6.55;;
26936;SDS011;14495;48.116;11.676;2022-12-07T03:04:45;13.55;;;7.18;;
26936;SDS011;14495;48.116;11.676;2022-12-07T03:07:34;11.20;;;6.78;;
26936;SDS011;14495;48.116;11.676;2022-12-07T03:10:33;11.90;;;6.55;;
26936;SDS011;14495;48.116;11.676;2022-12-07T03:13:16;11.20;;;6.60;;
26936;SDS011;14495;48.116;11.676;2022-12-07T03:18:39;13.90;;;6.78;;
26936;SDS011;14495;48.116;11.676;2022-12-07T03:21:17;13.07;;;7.68;;
26936;SDS011;14495;48.116;11.676;2022-12-07T03:23:45;10.55;;;6.45;;
26936;SDS011;14495;48.116;11.676;2022-12-07T03:26:14;13.57;;;6.55;;
26936;SDS011;14495;48.116;11.676;2022-12-07T03:28:44;13.43;;;6.30;;
26936;SDS011;14495;48.116;11.676;2022-12-07T03:31:16;11.93;;;6.50;;
26936;SDS011;14495;48.116;11.676;2022-12-07T03:33:52;11.38;;;6.60;;
26936;SDS011;14495;48.116;11.676;2022-12-07T03:36:49;13.77;;;6.65;;
26936;SDS011;14495;48.116;11.676;2022-12-07T03:39:19;15.43;;;7.32;;
26936;SDS011;14495;48.116;11.676;2022-12-07T03:41:56;12.98;;;6.57;;
26936;SDS011;14495;48.116;11.676;2022-12-07T03:44:24;12.32;;;6.65;;
26936;SDS011;14495;48.116;11.676;2022-12-07T03:47:06;15.00;;;6.80;;
26936;SDS011;14495;48.116;11.676;2022-12-07T03:49:43;10.45;;;5.85;;
26936;SDS011;14495;48.116;11.676;2022-12-07T03:55:28;13.63;;;7.47;;
26936;SDS011;14495;48.116;11.676;2022-12-07T03:57:57;12.60;;;7.05;;
26936;SDS011;14495;48.116;11.676;2022-12-07T04:00:26;13.25;;;6.38;;
26936;SDS011;14495;48.116;11.676;2022-12-07T04:02:51;11.25;;;7.13;;
26936;SDS011;14495;48.116;11.676;2022-12-07T04:05:17;13.73;;;6.55;;
26936;SDS011;14495;48.116;11.676;2022-12-07T04:07:43;12.05;;;6.57;;
26936;SDS011;14495;48.116;11.676;2022-12-07T04:10:09;14.98;;;7.25;;
26936;SDS011;14495;48.116;11.676;2022-12-07T04:12:35;13.00;;;7.43;;
26936;SDS011;14495;48.116;11.676;2022-12-07T04:15:00;12.32;;;6.97;;
26936;SDS011;14495;48.116;11.676;2022-12-07T04:17:26;14.95;;;7.22;;
26936;SDS011;14495;48.116;11.676;2022-12-07T04:19:51;15.50;;;8.32;;
26936;SDS011;14495;48.116;11.676;2022-12-07T04:22:16;13.90;;;7.05;;
26936;SDS011;14495;48.116;11.676;2022-12-07T04:24:41;14.80;;;7.88;;
26936;SDS011;14495;48.116;11.676;2022-12-07T04:27:07;16.40;;;7.85;;
26936;SDS011;14495;48.116;11.676;2022-12-07T04:29:32;15.57;;;8.13;;
26936;SDS011;14495;48.116;11.676;2022-12-07T04:31:57;14.85;;;8.50;;
26936;SDS011;14495;48.116;11.676;2022-12-07T04:34:23;13.38;;;7.63;;
26936;SDS011;14495;48.116;11.676;2022-12-07T04:36:48;16.13;;;8.68;;
26936;SDS011;14495;48.116;11.676;2022-12-07T04:39:18;14.25;;;7.50;;
26936;SDS011;14495;48.116;11.676;2022-12-07T04:41:46;15.40;;;8.45;;
26936;SDS011;14495;48.116;11.676;2022-12-07T04:44:12;16.77;;;8.88;;
26936;SDS011;14495;48.116;11.676;2022-12-07T04:46:39;14.57;;;7.55;;
26936;SDS011;14495;48.116;11.676;2022-12-07T04:49:04;16.02;;;8.07;;
26936;SDS011;14495;48.116;11.676;2022-12-07T04:51:30;16.60;;;8.23;;
26936;SDS011;14495;48.116;11.676;2022-12-07T04:53:55;14.82;;;8.43;;
26936;SDS011;14495;48.116;11.676;2022-12-07T04:56:21;17.48;;;7.93;;
26936;SDS011;14495;48.116;11.676;2022-12-07T04:58:47;13.77;;;8.38;;
26936;SDS011;14495;48.116;11.676;2022-12-07T05:01:13;18.27;;;9.60;;
26936;SDS011;14495;48.116;11.676;2022-12-07T05:03:40;15.85;;;8.65;;
26936;SDS011;14495;48.116;11.676;2022-12-07T05:06:06;16.05;;;8.73;;
26936;SDS011;14495;48.116;11.676;2022-12-07T05:08:32;16.70;;;8.68;;
26936;SDS011;14495;48.116;11.676;2022-12-07T05:10:59;14.65;;;8.32;;
26936;SDS011;14495;48.116;11.676;2022-12-07T05:13:24;18.08;;;9.23;;
26936;SDS011;14495;48.116;11.676;2022-12-07T05:15:49;17.42;;;8.77;;
26936;SDS011;14495;48.116;11.676;2022-12-07T05:18:15;16.25;;;8.85;;
26936;SDS011;14495;48.116;11.676;2022-12-07T05:20:41;16.67;;;8.45;;
26936;SDS011;14495;48.116;11.676;2022-12-07T05:23:07;18.08;;;9.00;;
26936;SDS011;14495;48.116;11.676;2022-12-07T05:25:32;17.08;;;8.82;;
26936;SDS011;14495;48.116;11.676;2022-12-07T05:27:57;14.85;;;8.68;;
26936;SDS011;14495;48.116;11.676;2022-12-07T05:30:23;19.20;;;9.05;;
26936;SDS011;14495;48.116;11.676;2022-12-07T05:32:50;18.83;;;9.05;;
26936;SDS011;14495;48.116;11.676;2022-12-07T05:35:15;15.95;;;8.77;;
26936;SDS011;14495;48.116;11.676;2022-12-07T05:37:41;19.75;;;8.77;;
26936;SDS011;14495;48.116;11.676;2022-12-07T05:40:07;16.08;;;9.07;;
26936;SDS011;14495;48.116;11.676;2022-12-07T05:42:33;16.10;;;8.73;;
26936;SDS011;14495;48.116;11.676;2022-12-07T05:44:59;15.88;;;8.60;;
26936;SDS011;14495;48.116;11.676;2022-12-07T05:47:24;15.73;;;8.35;;
26936;SDS011;14495;48.116;11.676;2022-12-07T05:49:50;15.43;;;9.05;;
26936;SDS011;14495;48.116;11.676;2022-12-07T05:52:15;15.77;;;8.27;;
26936;SDS011;14495;48.116;11.676;2022-12-07T05:54:40;20.23;;;8.52;;
26936;SDS011;14495;48.116;11.676;2022-12-07T05:57:05;15.35;;;8.63;;
26936;SDS011;14495;48.116;11.676;2022-12-07T05:59:31;17.23;;;8.85;;
26936;SDS011;14495;48.116;11.676;2022-12-07T06:01:57;15.15;;;8.48;;
26936;SDS011;14495;48.116;11.676;2022-12-07T06:04:25;16.48;;;8.75;;
26936;SDS011;14495;48.116;11.676;2022-12-07T06:06:52;15.93;;;7.70;;
26936;SDS011;14495;48.116;11.676;2022-12-07T06:09:18;17.38;;;8.88;;
26936;SDS011;14495;48.116;11.676;2022-12-07T06:11:45;16.38;;;7.80;;
26936;SDS011;14495;48.116;11.676;2022-12-07T06:14:29;17.20;;;9.25;;
26936;SDS011;14495;48.116;11.676;2022-12-07T06:16:54;18.73;;;8.77;;
26936;SDS011;14495;48.116;11.676;2022-12-07T06:19:20;19.67;;;8.68;;
26936;SDS011;14495;48.116;11.676;2022-12-07T06:21:45;24.30;;;9.52;;
26936;SDS011;14495;48.116;11.676;2022-12-07T06:24:11;19.58;;;9.15;;
26936;SDS011;14495;48.116;11.676;2022-12-07T06:26:38;21.33;;;9.30;;
26936;SDS011;14495;48.116;11.676;2022-12-07T06:29:04;19.58;;;9.23;;
26936;SDS011;14495;48.116;11.676;2022-12-07T06:31:30;21.20;;;8.60;;
26936;SDS011;14495;48.116;11.676;2022-12-07T06:33:59;18.67;;;8.35;;
26936;SDS011;14495;48.116;11.676;2022-12-07T06:36:26;17.73;;;8.43;;
26936;SDS011;14495;48.116;11.676;2022-12-07T06:38:51;15.77;;;7.68;;
26936;SDS011;14495;48.116;11.676;2022-12-07T06:41:17;15.00;;;8.20;;
26936;SDS011;14495;48.116;11.676;2022-12-07T06:43:43;12.82;;;7.68;;
26936;SDS011;14495;48.116;11.676;2022-12-07T06:46:08;13.70;;;7.63;;
26936;SDS011;14495;48.116;11.676;2022-12-07T06:48:33;18.05;;;8.73;;
26936;SDS011;14495;48.116;11.676;2022-12-07T06:50:59;14.85;;;8.20;;
26936;SDS011;14495;48.116;11.676;2022-12-07T06:53:24;15.63;;;8.25;;
26936;SDS011;14495;48.116;11.676;2022-12-07T06:55:50;13.90;;;8.20;;
26936;SDS011;14495;48.116;11.676;2022-12-07T06:58:15;17.42;;;9.00;;
26936;SDS011;14495;48.116;11.676;2022-12-07T07:00:41;17.80;;;9.23;;
26936;SDS011;14495;48.116;11.676;2022-12-07T07:03:06;15.90;;;8.25;;
26936;SDS011;14495;48.116;11.676;2022-12-07T07:05:32;15.90;;;8.57;;
26936;SDS011;14495;48.116;11.676;2022-12-07T07:07:57;15.32;;;8.98;;
26936;SDS011;14495;48.116;11.676;2022-12-07T07:10:23;16.83;;;8.73;;
26936;SDS011;14495;48.116;11.676;2022-12-07T07:12:48;18.70;;;10.30;;
26936;SDS011;14495;48.116;11.676;2022-12-07T07:15:13;17.83;;;9.50;;
26936;SDS011;14495;48.116;11.676;2022-12-07T07:17:39;18.70;;;9.38;;
26936;SDS011;14495;48.116;11.676;2022-12-07T07:20:04;18.67;;;10.30;;
26936;SDS011;14495;48.116;11.676;2022-12-07T07:22:30;21.17;;;10.57;;
26936;SDS011;14495;48.116;11.676;2022-12-07T07:24:55;17.02;;;8.75;;
26936;SDS011;14495;48.116;11.676;2022-12-07T07:27:20;17.10;;;9.38;;
26936;SDS011;14495;48.116;11.676;2022-12-07T07:29:46;14.85;;;8.65;;
26936;SDS011;14495;48.116;11.676;2022-12-07T07:32:11;16.90;;;9.75;;
26936;SDS011;14495;48.116;11.676;2022-12-07T07:34:37;21.10;;;8.68;;
26936;SDS011;14495;48.116;11.676;2022-12-07T07:37:02;20.55;;;10.00;;
26936;SDS011;14495;48.116;11.676;2022-12-07T07:39:28;15.95;;;9.40;;
26936;SDS011;14495;48.116;11.676;2022-12-07T07:41:53;16.38;;;8.40;;
26936;SDS011;14495;48.116;11.676;2022-12-07T07:44:19;14.07;;;7.38;;
26936;SDS011;14495;48.116;11.676;2022-12-07T07:46:44;14.77;;;8.07;;
26936;SDS011;14495;48.116;11.676;2022-12-07T07:49:09;14.82;;;8.07;;
26936;SDS011;14495;48.116;11.676;2022-12-07T07:51:35;20.17;;;8.73;;
26936;SDS011;14495;48.116;11.676;2022-12-07T07:54:01;15.25;;;8.73;;
26936;SDS011;14495;48.116;11.676;2022-12-07T07:56:27;15.05;;;8.30;;
26936;SDS011;14495;48.116;11.676;2022-12-07T07:58:52;15.10;;;8.15;;
26936;SDS011;14495;48.116;11.676;2022-12-07T08:01:17;16.08;;;8.65;;
26936;SDS011;14495;48.116;11.676;2022-12-07T08:03:44;15.95;;;7.63;;
26936;SDS011;14495;48.116;11.676;2022-12-07T08:06:11;16.33;;;9.27;;
26936;SDS011;14495;48.116;11.676;2022-12-07T08:08:36;15.75;;;7.90;;
26936;SDS011;14495;48.116;11.676;2022-12-07T08:11:04;12.25;;;7.18;;
26936;SDS011;14495;48.116;11.676;2022-12-07T08:13:33;14.23;;;7.22;;
26936;SDS011;14495;48.116;11.676;2022-12-07T08:15:59;11.40;;;6.28;;
26936;SDS011;14495;48.116;11.676;2022-12-07T08:18:29;14.73;;;7.32;;
26936;SDS011;14495;48.116;11.676;2022-12-07T08:20:58;10.38;;;6.43;;
26936;SDS011;14495;48.116;11.676;2022-12-07T08:23:25;16.00;;;6.65;;
26936;SDS011;14495;48.116;11.676;2022-12-07T08:25:51;13.40;;;7.93;;
26936;SDS011;14495;48.116;11.676;2022-12-07T08:28:16;13.93;;;7.53;;
26936;SDS011;14495;48.116;11.676;2022-12-07T08:30:41;13.25;;;6.75;;
26936;SDS011;14495;48.116;11.676;2022-12-07T08:33:07;22.98;;;7.22;;
26936;SDS011;14495;48.116;11.676;2022-12-07T08:35:32;15.18;;;7.40;;
26936;SDS011;14495;48.116;11.676;2022-12-07T08:37:59;14.00;;;7.90;;
26936;SDS011;14495;48.116;11.676;2022-12-07T08:40:24;13.35;;;7.95;;
26936;SDS011;14495;48.116;11.676;2022-12-07T08:42:49;11.98;;;7.18;;
26936;SDS011;14495;48.116;11.676;2022-12-07T08:45:16;11.82;;;7.18;;
26936;SDS011;14495;48.116;11.676;2022-12-07T08:47:49;13.25;;;6.95;;
26936;SDS011;14495;48.116;11.676;2022-12-07T08:50:18;16.20;;;7.72;;
26936;SDS011;14495;48.116;11.676;2022-12-07T08:52:44;12.30;;;7.32;;
26936;SDS011;14495;48.116;11.676;2022-12-07T08:55:15;14.65;;;7.25;;
26936;SDS011;14495;48.116;11.676;2022-12-07T08:57:41;14.35;;;7.00;;
26936;SDS011;14495;48.116;11.676;2022-12-07T09:00:07;17.52;;;8.30;;
26936;SDS011;14495;48.116;11.676;2022-12-07T09:02:33;18.25;;;7.70;;
26936;SDS011;14495;48.116;11.676;2022-12-07T09:04:59;17.05;;;8.23;;
26936;SDS011;14495;48.116;11.676;2022-12-07T09:07:24;14.32;;;8.02;;
26936;SDS011;14495;48.116;11.676;2022-12-07T09:09:51;14.73;;;8.10;;
26936;SDS011;14495;48.116;11.676;2022-12-07T09:12:16;18.15;;;8.35;;
26936;SDS011;14495;48.116;11.676;2022-12-07T09:14:41;17.80;;;8.57;;
26936;SDS011;14495;48.116;11.676;2022-12-07T09:17:07;16.67;;;8.63;;
26936;SDS011;14495;48.116;11.676;2022-12-07T09:19:33;15.75;;;8.23;;
26936;SDS011;14495;48.116;11.676;2022-12-07T09:21:59;17.92;;;9.05;;
26936;SDS011;14495;48.116;11.676;2022-12-07T09:24:24;16.13;;;8.20;;
26936;SDS011;14495;48.116;11.676;2022-12-07T09:26:49;13.82;;;7.97;;
26936;SDS011;14495;48.116;11.676;2022-12-07T09:29:15;16.77;;;7.95;;
26936;SDS011;14495;48.116;11.676;2022-12-07T09:31:40;15.68;;;7.95;;
26936;SDS011;14495;48.116;11.676;2022-12-07T09:34:05;12.80;;;7.22;;
26936;SDS011;14495;48.116;11.676;2022-12-07T09:36:32;14.65;;;7.45;;
26936;SDS011;14495;48.116;11.676;2022-12-07T09:38:58;16.75;;;7.85;;
26936;SDS011;14495;48.116;11.676;2022-12-07T09:41:23;14.30;;;7.75;;
26936;SDS011;14495;48.116;11.676;2022-12-07T09:43:51;12.52;;;6.95;;
26936;SDS011;14495;48.116;11.676;2022-12-07T09:46:18;13.70;;;6.85;;
26936;SDS011;14495;48.116;11.676;2022-12-07T09:48:45;12.45;;;7.72;;
26936;SDS011;14495;48.116;11.676;2022-12-07T09:51:16;12.40;;;6.40;;
26936;SDS011;14495;48.116;11.676;2022-12-07T09:53:46;13.77;;;6.97;;
26936;SDS011;14495;48.116;11.676;2022-12-07T09:56:15;12.68;;;7.03;;
26936;SDS011;14495;48.116;11.676;2022-12-07T09:58:42;16.23;;;8.32;;
26936;SDS011;14495;48.116;11.676;2022-12-07T10:03:34;11.27;;;6.55;;
26936;SDS011;14495;48.116;11.676;2022-12-07T10:06:00;11.70;;;6.63;;
26936;SDS011;14495;48.116;11.676;2022-12-07T10:08:26;10.45;;;6.05;;
26936;SDS011;14495;48.116;11.676;2022-12-07T10:10:53;10.73;;;5.82;;
26936;SDS011;14495;48.116;11.676;2022-12-07T10:13:36;11.87;;;6.90;;
26936;SDS011;14495;48.116;11.676;2022-12-07T10:16:02;10.75;;;5.80;;
26936;SDS011;14495;48.116;11.676;2022-12-07T10:18:35;10.45;;;6.40;;
26936;SDS011;14495;48.116;11.676;2022-12-07T10:21:19;10.55;;;6.15;;
26936;SDS011;14495;48.116;11.676;2022-12-07T10:29:27;11.55;;;6.25;;
26936;SDS011;14495;48.116;11.676;2022-12-07T10:32:03;10.30;;;5.28;;
26936;SDS011;14495;48.116;11.676;2022-12-07T10:34:51;9.13;;;5.30;;
26936;SDS011;14495;48.116;11.676;2022-12-07T10:37:42;9.50;;;5.47;;
26936;SDS011;14495;48.116;11.676;2022-12-07T10:40:23;9.43;;;5.65;;
26936;SDS011;14495;48.116;11.676;2022-12-07T10:43:00;9.48;;;5.38;;
26936;SDS011;14495;48.116;11.676;2022-12-07T10:45:27;8.45;;;5.38;;
26936;SDS011;14495;48.116;11.676;2022-12-07T10:50:41;9.55;;;5.00;;
26936;SDS011;14495;48.116;11.676;2022-12-07T10:53:38;7.63;;;4.68;;
26936;SDS011;14495;48.116;11.676;2022-12-07T11:01:30;8.15;;;5.10;;
26936;SDS011;14495;48.116;11.676;2022-12-07T11:07:22;8.55;;;4.97;;
26936;SDS011;14495;48.116;11.676;2022-12-07T11:10:22;8.73;;;5.05;;
26936;SDS011;14495;48.116;11.676;2022-12-07T11:13:04;7.63;;;4.60;;
26936;SDS011;14495;48.116;11.676;2022-12-07T11:16:01;7.05;;;4.53;;
26936;SDS011;14495;48.116;11.676;2022-12-07T11:18:40;8.32;;;5.38;;
26936;SDS011;14495;48.116;11.676;2022-12-07T11:24:12;8.77;;;4.95;;
26936;SDS011;14495;48.116;11.676;2022-12-07T11:26:56;5.68;;;4.00;;
26936;SDS011;14495;48.116;11.676;2022-12-07T11:32:22;6.00;;;4.28;;
26936;SDS011;14495;48.116;11.676;2022-12-07T11:37:43;6.20;;;4.07;;
26936;SDS011;14495;48.116;11.676;2022-12-07T11:40:30;6.18;;;4.47;;
26936;SDS011;14495;48.116;11.676;2022-12-07T11:43:05;6.82;;;4.53;;
26936;SDS011;14495;48.116;11.676;2022-12-07T11:45:35;7.15;;;4.78;;
26936;SDS011;14495;48.116;11.676;2022-12-07T11:48:09;7.95;;;4.93;;
26936;SDS011;14495;48.116;11.676;2022-12-07T11:50:37;6.72;;;4.82;;
26936;SDS011;14495;48.116;11.676;2022-12-07T11:58:28;6.75;;;4.43;;
26936;SDS011;14495;48.116;11.676;2022-12-07T12:03:40;7.32;;;4.60;;
26936;SDS011;14495;48.116;11.676;2022-12-07T12:06:08;8.80;;;5.68;;
26936;SDS011;14495;48.116;11.676;2022-12-07T12:08:36;8.20;;;5.03;;
26936;SDS011;14495;48.116;11.676;2022-12-07T12:21:53;10.18;;;5.82;;
26936;SDS011;14495;48.116;11.676;2022-12-07T12:24:23;10.60;;;5.68;;
26936;SDS011;14495;48.116;11.676;2022-12-07T12:27:01;9.57;;;5.20;;
26936;SDS011;14495;48.116;11.676;2022-12-07T12:29:37;10.13;;;5.53;;
26936;SDS011;14495;48.116;11.676;2022-12-07T12:32:16;9.90;;;5.88;;
26936;SDS011;14495;48.116;11.676;2022-12-07T12:42:49;8.63;;;4.88;;
26936;SDS011;14495;48.116;11.676;2022-12-07T12:45:24;8.63;;;5.47;;
26936;SDS011;14495;48.116;11.676;2022-12-07T12:50:35;11.80;;;6.60;;
26936;SDS011;14495;48.116;11.676;2022-12-07T12:53:03;8.85;;;5.50;;
26936;SDS011;14495;48.116;11.676;2022-12-07T12:58:38;14.10;;;6.22;;
26936;SDS011;14495;48.116;11.676;2022-12-07T13:02:07;10.05;;;5.20;;
26936;SDS011;14495;48.116;11.676;2022-12-07T13:04:01;9.30;;;4.95;;
26936;SDS011;14495;48.116;11.676;2022-12-07T13:08:53;9.75;;;5.47;;
26936;SDS011;14495;48.116;11.676;2022-12-07T13:11:32;11.20;;;5.80;;
26936;SDS011;14495;48.116;11.676;2022-12-07T13:17:08;10.85;;;4.97;;
26936;SDS011;14495;48.116;11.676;2022-12-07T13:19:56;13.90;;;5.07;;
26936;SDS011;14495;48.116;11.676;2022-12-07T13:25:11;11.43;;;4.30;;
26936;SDS011;14495;48.116;11.676;2022-12-07T13:27:47;9.50;;;5.03;;
26936;SDS011;14495;48.116;11.676;2022-12-07T13:30:21;8.60;;;4.85;;
26936;SDS011;14495;48.116;11.676;2022-12-07T13:32:54;9.38;;;5.03;;
26936;SDS011;14495;48.116;11.676;2022-12-07T13:35:37;8.80;;;5.18;;
26936;SDS011;14495;48.116;11.676;2022-12-07T13:38:19;11.43;;;5.75;;
26936;SDS011;14495;48.116;11.676;2022-12-07T13:43:29;9.55;;;5.32;;
26936;SDS011;14495;48.116;11.676;2022-12-07T13:45:56;10.52;;;4.95;;
26936;SDS011;14495;48.116;11.676;2022-12-07T13:51:17;9.68;;;4.95;;
26936;SDS011;14495;48.116;11.676;2022-12-07T13:53:51;7.70;;;4.68;;
26936;SDS011;14495;48.116;11.676;2022-12-07T13:56:22;9.10;;;5.03;;
26936;SDS011;14495;48.116;11.676;2022-12-07T13:58:51;9.98;;;5.65;;
26936;SDS011;14495;48.116;11.676;2022-12-07T14:01:17;8.70;;;4.22;;
26936;SDS011;14495;48.116;11.676;2022-12-07T14:03:43;8.43;;;5.13;;
26936;SDS011;14495;48.116;11.676;2022-12-07T14:06:20;9.77;;;5.97;;
26936;SDS011;14495;48.116;11.676;2022-12-07T14:08:47;10.70;;;5.80;;
26936;SDS011;14495;48.116;11.676;2022-12-07T14:11:16;12.65;;;6.60;;
26936;SDS011;14495;48.116;11.676;2022-12-07T14:16:34;9.98;;;6.18;;
26936;SDS011;14495;48.116;11.676;2022-12-07T14:19:05;18.77;;;6.30;;
26936;SDS011;14495;48.116;11.676;2022-12-07T14:22:05;11.57;;;5.63;;
26936;SDS011;14495;48.116;11.676;2022-12-07T14:24:38;9.95;;;5.82;;
26936;SDS011;14495;48.116;11.676;2022-12-07T14:27:15;10.68;;;4.93;;
26936;SDS011;14495;48.116;11.676;2022-12-07T14:29:42;12.38;;;5.72;;
26936;SDS011;14495;48.116;11.676;2022-12-07T14:32:16;12.52;;;6.13;;
26936;SDS011;14495;48.116;11.676;2022-12-07T14:34:52;10.32;;;5.53;;
26936;SDS011;14495;48.116;11.676;2022-12-07T14:37:21;9.40;;;5.65;;
26936;SDS011;14495;48.116;11.676;2022-12-07T14:39:46;10.13;;;5.55;;
26936;SDS011;14495;48.116;11.676;2022-12-07T14:42:12;11.68;;;6.05;;
26936;SDS011;14495;48.116;11.676;2022-12-07T14:44:37;10.43;;;6.53;;
26936;SDS011;14495;48.116;11.676;2022-12-07T14:47:02;11.48;;;5.90;;
26936;SDS011;14495;48.116;11.676;2022-12-07T14:49:28;9.80;;;4.80;;
26936;SDS011;14495;48.116;11.676;2022-12-07T14:51:53;10.85;;;5.80;;
26936;SDS011;14495;48.116;11.676;2022-12-07T14:54:19;14.60;;;6.32;;
26936;SDS011;14495;48.116;11.676;2022-12-07T14:56:46;9.10;;;5.55;;
26936;SDS011;14495;48.116;11.676;2022-12-07T14:59:15;10.27;;;5.60;;
26936;SDS011;14495;48.116;11.676;2022-12-07T15:01:40;10.43;;;6.22;;
26936;SDS011;14495;48.116;11.676;2022-12-07T15:04:06;10.90;;;6.07;;
26936;SDS011;14495;48.116;11.676;2022-12-07T15:06:31;11.70;;;6.35;;
26936;SDS011;14495;48.116;11.676;2022-12-07T15:08:56;10.98;;;5.90;;
26936;SDS011;14495;48.116;11.676;2022-12-07T15:11:22;12.68;;;6.32;;
26936;SDS011;14495;48.116;11.676;2022-12-07T15:13:47;10.43;;;5.38;;
26936;SDS011;14495;48.116;11.676;2022-12-07T15:16:31;12.15;;;6.32;;
26936;SDS011;14495;48.116;11.676;2022-12-07T15:18:57;11.38;;;6.95;;
26936;SDS011;14495;48.116;11.676;2022-12-07T15:21:22;13.05;;;6.63;;
26936;SDS011;14495;48.116;11.676;2022-12-07T15:23:47;12.15;;;6.32;;
26936;SDS011;14495;48.116;11.676;2022-12-07T15:26:13;12.32;;;6.72;;
26936;SDS011;14495;48.116;11.676;2022-12-07T15:28:39;14.73;;;7.63;;
26936;SDS011;14495;48.116;11.676;2022-12-07T15:31:11;15.25;;;7.43;;
26936;SDS011;14495;48.116;11.676;2022-12-07T15:33:38;21.25;;;8.43;;
26936;SDS011;14495;48.116;11.676;2022-12-07T15:36:03;17.60;;;9.45;;
26936;SDS011;14495;48.116;11.676;2022-12-07T15:38:29;19.90;;;9.52;;
26936;SDS011;14495;48.116;11.676;2022-12-07T15:40:55;17.83;;;8.82;;
26936;SDS011;14495;48.116;11.676;2022-12-07T15:43:21;18.95;;;8.80;;
26936;SDS011;14495;48.116;11.676;2022-12-07T15:46:05;20.42;;;9.98;;
26936;SDS011;14495;48.116;11.676;2022-12-07T15:48:30;20.92;;;9.65;;
26936;SDS011;14495;48.116;11.676;2022-12-07T15:51:05;19.23;;;9.95;;
26936;SDS011;14495;48.116;11.676;2022-12-07T15:53:32;21.88;;;10.65;;
26936;SDS011;14495;48.116;11.676;2022-12-07T15:55:58;22.88;;;9.57;;
26936;SDS011;14495;48.116;11.676;2022-12-07T15:58:23;17.58;;;9.30;;
26936;SDS011;14495;48.116;11.676;2022-12-07T16:00:49;19.27;;;9.30;;
26936;SDS011;14495;48.116;11.676;2022-12-07T16:03:14;17.95;;;8.90;;
26936;SDS011;14495;48.116;11.676;2022-12-07T16:05:39;18.40;;;9.20;;
26936;SDS011;14495;48.116;11.676;2022-12-07T16:08:04;21.90;;;8.23;;
26936;SDS011;14495;48.116;11.676;2022-12-07T16:10:30;26.38;;;10.98;;
26936;SDS011;14495;48.116;11.676;2022-12-07T16:12:55;20.80;;;9.27;;
26936;SDS011;14495;48.116;11.676;2022-12-07T16:15:21;20.98;;;9.63;;
26936;SDS011;14495;48.116;11.676;2022-12-07T16:17:46;19.27;;;9.13;;
26936;SDS011;14495;48.116;11.676;2022-12-07T16:20:11;19.83;;;9.80;;